Time;durP1;ratioP1;P1;durP2;ratioP2;P2;SDS_P1;SDS_P2;PMS_P1;PMS_P2;Temp;Humidity;BMP_temperature;BMP_pressure;BME280_temperature;BME280_humidity;BME280_pressure;Samples;Min_cycle;Max_cycle;Signal;HPM_P1;HPM_P2
2021/06/08 00:00:22;;;;;;;;;;;;;;;23.58;57.96;101401.78;4947854;28;1193;-70
2021/06/08 00:02:49;;;;;;;;;;;;;;;23.57;58.10;101396.53;4947572;28;1322;-72
2021/06/08 00:05:17;;;;;;;;;;;;;;;23.55;58.31;101395.81;4931883;28;1199;-70
2021/06/08 00:07:44;;;;;;;;;;;;;;;23.59;57.84;101403.47;4949158;28;1312;-70
2021/06/08 00:10:12;;;;;;;;;;;;;;;23.58;58.09;101395.59;4948899;28;1011;-70
2021/06/08 00:12:47;;;;;;;;;;;;;;;23.58;58.47;101395.59;4949386;29;1908;-68
2021/06/08 00:15:19;;;;;;;;;;;;;;;23.59;58.16;101398.13;4949076;29;1088;-68
2021/06/08 00:17:45;;;;;;;;;;;;;;;23.64;58.04;101396.03;4949798;28;1209;-70
2021/06/08 00:20:14;;;;;;;;;;;;;;;23.59;58.35;101398.13;4949256;28;990;-71
2021/06/08 00:22:44;;;;;;;;;;;;;;;23.62;58.07;101399.78;4946935;28;1245;-71
2021/06/08 00:25:11;;;;;;;;;;;;;;;23.57;58.74;101405.38;4947382;28;1060;-72
2021/06/08 00:27:38;;;;;;;;;;;;;;;23.59;58.54;101398.13;4947378;28;1217;-72
2021/06/08 00:30:05;;;;;;;;;;;;;;;23.60;58.48;101401.66;4947256;28;1513;-71
2021/06/08 00:32:32;;;;;;;;;;;;;;;23.61;58.37;101401.56;4948428;28;1910;-71
2021/06/08 00:34:59;;;;;;;;;;;;;;;23.58;58.26;101395.59;4947388;28;1294;-72
2021/06/08 00:37:26;;;;;;;;;;;;;;;23.58;58.13;101404.44;4947151;28;1206;-71
2021/06/08 00:39:53;;;;;;;;;;;;;;;23.58;57.85;101401.78;4948628;28;887;-70
2021/06/08 00:42:27;;;;;;;;;;;;;;;23.61;58.08;101392.72;4946318;28;1253;-69
2021/06/08 00:44:54;;;;;;;;;;;;;;;23.55;58.30;101391.34;4948744;28;902;-73
2021/06/08 00:47:21;;;;;;;;;;;;;;;23.55;58.22;101390.50;4948591;28;1300;-72
2021/06/08 00:49:48;;;;;;;;;;;;;;;23.59;58.06;101384.03;4948472;28;802;-72
2021/06/08 00:52:15;;;;;;;;;;;;;;;23.61;57.78;101390.94;4946770;28;1911;-72
2021/06/08 00:54:43;;;;;;;;;;;;;;;23.60;57.92;101383.03;4946835;28;1284;-72
2021/06/08 00:57:10;;;;;;;;;;;;;;;23.58;58.25;101382.31;4931100;28;1371;-72
2021/06/08 00:59:40;;;;;;;;;;;;;;;23.59;58.01;101386.69;4946639;28;1392;-72
2021/06/08 01:02:07;;;;;;;;;;;;;;;23.62;57.62;101381.97;4946988;28;1248;-72
2021/06/08 01:04:34;;;;;;;;;;;;;;;23.62;57.90;101374.00;4930855;28;1373;-72
2021/06/08 01:07:01;;;;;;;;;;;;;;;23.64;57.74;101373.91;4948308;28;1363;-73
2021/06/08 01:09:28;;;;;;;;;;;;;;;23.63;57.52;101366.88;4948441;28;720;-73
2021/06/08 01:11:54;;;;;;;;;;;;;;;23.62;57.73;101367.84;4948340;28;1976;-73
2021/06/08 01:14:21;;;;;;;;;;;;;;;23.62;57.52;101375.84;4963271;28;1750;-73
2021/06/08 01:16:48;;;;;;;;;;;;;;;23.64;57.25;101374.78;4967170;28;1225;-71
2021/06/08 01:19:16;;;;;;;;;;;;;;;23.64;57.24;101380.09;4967341;28;1184;-72
2021/06/08 01:21:42;;;;;;;;;;;;;;;23.65;57.41;101381.78;4955331;28;1279;-71
2021/06/08 01:24:12;;;;;;;;;;;;;;;23.64;57.19;101379.22;4945792;28;1441;-72
2021/06/08 01:26:39;;;;;;;;;;;;;;;23.59;57.11;101381.34;4948320;28;1261;-71
2021/06/08 01:29:08;;;;;;;;;;;;;;;23.60;56.96;101375.06;4947855;28;1141;-72
2021/06/08 01:31:36;;;;;;;;;;;;;;;23.62;56.95;101373.19;4930715;28;1963;-72
2021/06/08 01:34:03;;;;;;;;;;;;;;;23.60;56.93;101375.91;4946315;28;1078;-72
2021/06/08 01:36:34;;;;;;;;;;;;;;;23.62;56.94;101374.00;4948727;28;1251;-72
2021/06/08 01:39:01;;;;;;;;;;;;;;;23.58;56.66;101371.66;4949606;29;1197;-72
2021/06/08 01:41:27;;;;;;;;;;;;;;;23.57;56.52;101367.28;4948888;28;1249;-71
2021/06/08 01:43:54;;;;;;;;;;;;;;;23.57;55.94;101362.84;4963491;28;822;-71
2021/06/08 01:46:22;;;;;;;;;;;;;;;23.57;55.94;101357.50;4970347;28;1651;-71
2021/06/08 01:48:50;;;;;;;;;;;;;;;23.55;55.76;101358.56;4969156;28;1056;-71
2021/06/08 01:51:20;;;;;;;;;;;;;;;23.57;55.70;101351.34;4968977;28;1903;-70
2021/06/08 01:53:50;;;;;;;;;;;;;;;23.56;55.93;101354.97;4952774;28;1455;-70
2021/06/08 01:56:20;;;;;;;;;;;;;;;23.57;55.89;101351.34;4970628;28;1276;-71
2021/06/08 01:59:05;;;;;;;;;;;;;;;23.55;55.55;101354.13;4970411;28;763;-71
2021/06/08 02:01:41;;;;;;;;;;;;;;;23.57;56.03;101348.69;4970079;28;1272;-71
2021/06/08 02:04:15;;;;;;;;;;;;;;;23.57;55.63;101352.19;4968615;28;1206;-72
2021/06/08 02:06:46;;;;;;;;;;;;;;;23.56;55.42;101352.31;4970398;28;1327;-72
2021/06/08 02:09:20;;;;;;;;;;;;;;;23.54;55.43;101351.53;4970475;28;1172;-73
2021/06/08 02:12:07;;;;;;;;;;;;;;;23.52;55.53;101348.16;4970016;28;1914;-71
2021/06/08 02:14:38;;;;;;;;;;;;;;;23.52;55.22;101342.84;4982499;28;1499;-71
2021/06/08 02:17:25;;;;;;;;;;;;;;;23.54;55.18;101346.22;4969923;28;1277;-72
2021/06/08 02:19:55;;;;;;;;;;;;;;;23.57;55.22;101346.03;4982170;28;1334;-72
2021/06/08 02:22:23;;;;;;;;;;;;;;;23.56;55.32;101345.16;4969546;28;1233;-72
2021/06/08 02:24:51;;;;;;;;;;;;;;;23.53;55.32;101337.38;4968095;28;814;-72
2021/06/08 02:27:21;;;;;;;;;;;;;;;23.54;55.27;101347.09;4969976;28;1212;-72
2021/06/08 02:29:48;;;;;;;;;;;;;;;23.56;55.16;101342.50;4969628;28;1103;-73
2021/06/08 02:32:15;;;;;;;;;;;;;;;23.57;55.21;101343.34;4969389;28;1987;-72
2021/06/08 02:34:43;;;;;;;;;;;;;;;23.56;55.24;101341.69;4970126;28;799;-73
2021/06/08 02:37:12;;;;;;;;;;;;;;;23.58;55.43;101348.59;4970270;28;1288;-73
2021/06/08 02:39:39;;;;;;;;;;;;;;;23.58;55.58;101342.41;4952265;28;1171;-73
2021/06/08 02:42:08;;;;;;;;;;;;;;;23.58;55.69;101342.41;4968381;28;1268;-73
2021/06/08 02:44:35;;;;;;;;;;;;;;;23.54;55.46;101347.09;4951492;28;1230;-73
2021/06/08 02:47:03;;;;;;;;;;;;;;;23.56;55.44;101344.34;4969453;28;1698;-73
2021/06/08 02:49:31;;;;;;;;;;;;;;;23.58;55.55;101347.72;4967090;28;1199;-73
2021/06/08 02:52:12;;;;;;;;;;;;;;;23.56;55.49;101350.47;4962570;28;1990;-73
2021/06/08 02:54:39;;;;;;;;;;;;;;;23.56;55.30;101344.34;4969777;28;801;-73
2021/06/08 02:57:06;;;;;;;;;;;;;;;23.55;55.70;101348.81;4968131;28;1256;-73
2021/06/08 02:59:34;;;;;;;;;;;;;;;23.54;55.84;101351.53;4969294;28;1210;-73
2021/06/08 03:02:02;;;;;;;;;;;;;;;23.55;55.54;101350.59;4952174;28;1322;-73
2021/06/08 03:04:37;;;;;;;;;;;;;;;23.55;55.96;101343.47;4968306;28;1156;-73
2021/06/08 03:07:08;;;;;;;;;;;;;;;23.55;56.59;101342.63;4969687;28;1341;-74
2021/06/08 03:09:37;;;;;;;;;;;;;;;23.49;56.65;101354.53;4969132;28;1096;-73
2021/06/08 03:12:12;;;;;;;;;;;;;;;23.48;56.59;101350.16;4969621;28;1906;-73
2021/06/08 03:14:41;;;;;;;;;;;;;;;23.52;56.29;101356.13;4967668;28;838;-70
2021/06/08 03:17:10;;;;;;;;;;;;;;;23.56;56.27;101352.31;4968682;28;1355;-71
2021/06/08 03:19:38;;;;;;;;;;;;;;;23.55;55.91;101354.13;4951468;28;1520;-70
2021/06/08 03:22:13;;;;;;;;;;;;;;;23.55;56.23;101350.59;4967835;28;1347;-72
2021/06/08 03:24:41;;;;;;;;;;;;;;;23.54;56.28;101351.53;4968868;28;822;-72
2021/06/08 03:27:09;;;;;;;;;;;;;;;23.55;56.28;101353.25;4969318;28;1358;-73
2021/06/08 03:29:36;;;;;;;;;;;;;;;23.53;56.76;101353.34;4969083;28;786;-72
2021/06/08 03:32:03;;;;;;;;;;;;;;;23.50;56.58;101352.72;4968856;28;1907;-72
2021/06/08 03:34:32;;;;;;;;;;;;;;;23.53;56.39;101360.50;4968896;28;767;-72
2021/06/08 03:37:00;;;;;;;;;;;;;;;23.51;56.92;101351.75;4967246;28;1272;-73
2021/06/08 03:39:27;;;;;;;;;;;;;;;23.58;56.39;101361.03;4967090;28;775;-72
2021/06/08 03:41:54;;;;;;;;;;;;;;;23.55;56.51;101361.25;4969065;28;1262;-72
2021/06/08 03:44:21;;;;;;;;;;;;;;;23.51;56.45;101368.56;4968517;28;813;-72
2021/06/08 03:46:48;;;;;;;;;;;;;;;23.55;56.84;101363.91;4968104;28;2024;-72
2021/06/08 03:49:17;;;;;;;;;;;;;;;23.56;56.54;101360.28;4968403;28;1353;-71
2021/06/08 03:51:44;;;;;;;;;;;;;;;23.56;56.78;101363.78;4966974;28;1911;-72
2021/06/08 03:54:12;;;;;;;;;;;;;;;23.58;56.81;101361.03;4966930;28;1250;-72
2021/06/08 03:56:41;;;;;;;;;;;;;;;23.55;56.84;101363.91;4968866;28;1373;-72
2021/06/08 03:59:10;;;;;;;;;;;;;;;23.53;57.00;101366.66;4966633;28;1284;-72
2021/06/08 04:01:37;;;;;;;;;;;;;;;23.52;56.94;101369.41;4968322;28;1338;-72
2021/06/08 04:04:04;;;;;;;;;;;;;;;23.54;56.87;101364.84;4967030;28;794;-72
2021/06/08 04:06:31;;;;;;;;;;;;;;;23.54;57.01;101373.69;4966909;28;1371;-74
2021/06/08 04:09:02;;;;;;;;;;;;;;;23.55;56.83;101380.72;4968392;28;800;-74
2021/06/08 04:11:29;;;;;;;;;;;;;;;23.54;57.03;101378.13;4966722;28;1510;-74
2021/06/08 04:13:56;;;;;;;;;;;;;;;23.52;57.01;101378.25;4968728;28;1973;-74
2021/06/08 04:16:23;;;;;;;;;;;;;;;23.51;57.05;101375.69;4967062;28;1370;-74
2021/06/08 04:18:50;;;;;;;;;;;;;;;23.50;57.08;101380.16;4959127;28;1542;-74
2021/06/08 04:21:21;;;;;;;;;;;;;;;23.49;57.09;101380.25;4949610;28;1220;-74
2021/06/08 04:23:55;;;;;;;;;;;;;;;23.50;57.29;101374.00;4963114;28;890;-74
2021/06/08 04:26:22;;;;;;;;;;;;;;;23.50;57.19;101374.81;4968132;28;1394;-74
2021/06/08 04:28:49;;;;;;;;;;;;;;;23.50;57.21;101371.34;4960986;28;781;-73
2021/06/08 04:31:15;;;;;;;;;;;;;;;23.48;57.08;101374.09;4957702;28;1264;-73
2021/06/08 04:33:43;;;;;;;;;;;;;;;23.47;57.40;101376.88;4967549;28;1915;-73
2021/06/08 04:36:10;;;;;;;;;;;;;;;23.52;57.18;101377.41;4967888;28;1315;-72
2021/06/08 04:38:37;;;;;;;;;;;;;;;23.50;57.35;101381.97;4961264;28;782;-72
2021/06/08 04:41:05;;;;;;;;;;;;;;;23.52;57.06;101386.22;4948842;28;1119;-72
2021/06/08 04:43:33;;;;;;;;;;;;;;;23.50;57.14;101393.44;4948636;28;792;-72
2021/06/08 04:46:01;;;;;;;;;;;;;;;23.50;57.19;101395.28;4949317;28;1444;-72
2021/06/08 04:48:28;;;;;;;;;;;;;;;23.51;57.19;101389.84;4964859;28;1264;-69
2021/06/08 04:50:54;;;;;;;;;;;;;;;23.53;57.06;101395.06;4967272;28;1084;-73
2021/06/08 04:53:22;;;;;;;;;;;;;;;23.51;57.30;101394.28;4966134;28;1986;-73
2021/06/08 04:55:49;;;;;;;;;;;;;;;23.53;57.44;101397.72;4962522;28;1542;-72
2021/06/08 04:58:16;;;;;;;;;;;;;;;23.46;57.67;101394.63;4956081;28;1268;-73
2021/06/08 05:01:01;;;;;;;;;;;;;;;23.45;57.99;101394.72;4957961;28;1452;-76
2021/06/08 05:03:36;;;;;;;;;;;;;;;23.45;57.81;101398.22;4951145;28;1257;-76
2021/06/08 05:06:05;;;;;;;;;;;;;;;23.45;57.70;101392.03;4947588;28;996;-75
2021/06/08 05:08:35;;;;;;;;;;;;;;;23.50;57.47;101392.63;4945970;28;764;-72
2021/06/08 05:11:08;;;;;;;;;;;;;;;23.51;57.51;101388.97;4946273;28;1048;-78
2021/06/08 05:13:36;;;;;;;;;;;;;;;23.53;57.46;101393.22;4930047;28;1977;-72
2021/06/08 05:16:03;;;;;;;;;;;;;;;23.53;57.51;101398.56;4947405;28;919;-77
2021/06/08 05:18:31;;;;;;;;;;;;;;;23.48;57.49;101394.50;4946002;28;1391;-73
2021/06/08 05:20:59;;;;;;;;;;;;;;;23.48;57.77;101391.84;4945752;28;1236;-71
2021/06/08 05:23:26;;;;;;;;;;;;;;;23.50;57.77;101393.44;4946753;28;1225;-69
2021/06/08 05:25:53;;;;;;;;;;;;;;;23.49;57.86;101390.91;4947314;28;911;-69
2021/06/08 05:28:40;;;;;;;;;;;;;;;23.50;57.89;101392.63;4946681;28;1088;-67
2021/06/08 05:31:07;;;;;;;;;;;;;;;23.50;57.78;101387.28;4947356;28;1269;-71
2021/06/08 05:33:34;;;;;;;;;;;;;;;23.50;57.79;101384.63;4947043;28;1946;-68
2021/06/08 05:36:02;;;;;;;;;;;;;;;23.51;57.63;101379.19;4947262;28;1198;-68
2021/06/08 05:38:33;;;;;;;;;;;;;;;23.52;57.64;101388.03;4946673;28;1245;-71
2021/06/08 05:41:08;;;;;;;;;;;;;;;23.51;57.70;101381.00;4947212;29;1296;-75
2021/06/08 05:43:35;;;;;;;;;;;;;;;23.58;57.81;101387.63;4947474;29;1076;-74
2021/06/08 05:46:02;;;;;;;;;;;;;;;23.60;57.76;101383.03;4946955;28;1416;-72
2021/06/08 05:48:29;;;;;;;;;;;;;;;23.59;57.88;101386.69;4959996;28;1543;-78
2021/06/08 05:50:57;;;;;;;;;;;;;;;23.57;57.79;101388.56;4946914;28;1180;-76
2021/06/08 05:53:24;;;;;;;;;;;;;;;23.54;57.72;101388.78;4946898;28;1907;-69
2021/06/08 05:55:53;;;;;;;;;;;;;;;23.50;57.86;101397.94;4951035;28;1617;-68
2021/06/08 05:58:32;;;;;;;;;;;;;;;23.51;57.83;101395.16;4953055;28;1320;-70
2021/06/08 06:01:04;;;;;;;;;;;;;;;23.53;57.34;101400.38;4945343;28;963;-72
2021/06/08 06:03:33;;;;;;;;;;;;;;;23.41;57.76;101396.72;4946508;28;1241;-70
2021/06/08 06:06:02;;;;;;;;;;;;;;;23.56;57.49;101398.34;4945351;28;1075;-70
2021/06/08 06:08:29;;;;;;;;;;;;;;;23.46;57.32;101402.59;4945982;28;1204;-73
2021/06/08 06:10:57;;;;;;;;;;;;;;;23.40;57.31;101395.03;4946149;28;1093;-74
2021/06/08 06:13:26;;;;;;;;;;;;;;;23.37;57.46;101395.19;4946377;28;1981;-73
2021/06/08 06:15:54;;;;;;;;;;;;;;;23.37;57.46;101392.53;4946361;28;851;-72
2021/06/08 06:18:21;;;;;;;;;;;;;;;23.39;57.14;101402.16;4945069;28;1328;-75
2021/06/08 06:20:49;;;;;;;;;;;;;;;23.36;57.12;101397.00;4929896;28;1159;-73
2021/06/08 06:23:17;;;;;;;;;;;;;;;23.37;57.01;101400.50;4945426;28;1282;-74
2021/06/08 06:25:44;;;;;;;;;;;;;;;23.33;57.07;101399.84;4947988;28;1298;-73
2021/06/08 06:28:15;;;;;;;;;;;;;;;23.32;57.23;101400.81;4932290;28;1315;-73
2021/06/08 06:30:42;;;;;;;;;;;;;;;23.32;57.24;101402.59;4949655;28;1125;-72
2021/06/08 06:33:13;;;;;;;;;;;;;;;23.37;57.19;101408.50;4948273;28;1914;-71
2021/06/08 06:35:39;;;;;;;;;;;;;;;23.36;56.79;101401.47;4949605;28;1120;-72
2021/06/08 06:38:07;;;;;;;;;;;;;;;23.37;56.55;101406.69;4949228;28;1297;-69
2021/06/08 06:40:34;;;;;;;;;;;;;;;23.48;56.87;101406.00;4950486;28;1543;-70
2021/06/08 06:43:04;;;;;;;;;;;;;;;23.63;56.88;101410.28;4938295;28;1421;-72
2021/06/08 06:45:33;;;;;;;;;;;;;;;23.65;56.60;101410.19;4959549;28;1541;-73
2021/06/08 06:48:03;;;;;;;;;;;;;;;23.72;56.75;101404.34;4968453;28;1245;-71
2021/06/08 06:50:31;;;;;;;;;;;;;;;23.79;56.67;101403.00;4968097;28;1065;-67
2021/06/08 06:52:58;;;;;;;;;;;;;;;23.75;56.80;101406.81;4966765;28;2188;-70
2021/06/08 06:55:27;;;;;;;;;;;;;;;23.77;56.83;101412.03;4963425;28;1455;-75
2021/06/08 06:57:54;;;;;;;;;;;;;;;23.77;56.82;101401.41;4956089;28;1240;-75
2021/06/08 07:00:22;;;;;;;;;;;;;;;23.84;56.90;101408.84;4949299;28;1152;-68
2021/06/08 07:02:51;;;;;;;;;;;;;;;23.83;56.66;101401.81;4936230;28;1428;-74
2021/06/08 07:05:19;;;;;;;;;;;;;;;23.83;57.06;101412.44;4951942;28;1073;-72
2021/06/08 07:07:47;;;;;;;;;;;;;;;23.81;57.00;101408.19;4967409;28;1552;-72
2021/06/08 07:10:14;;;;;;;;;;;;;;;23.77;56.86;101410.19;4969170;28;1016;-72
2021/06/08 07:12:42;;;;;;;;;;;;;;;23.76;57.00;101405.84;4967381;28;1910;-72
2021/06/08 07:15:10;;;;;;;;;;;;;;;23.76;57.24;101413.84;4961432;28;1567;-73
2021/06/08 07:17:38;;;;;;;;;;;;;;;23.82;57.13;101400.13;4983657;28;1291;-76
2021/06/08 07:20:06;;;;;;;;;;;;;;;23.80;56.84;101403.84;5031755;28;1134;-74
2021/06/08 07:22:33;;;;;;;;;;;;;;;23.78;56.90;101406.59;5068825;28;1266;-75
2021/06/08 07:25:02;;;;;;;;;;;;;;;23.77;57.03;101406.72;5000382;28;1304;-73
2021/06/08 07:27:29;;;;;;;;;;;;;;;23.77;54.95;101404.88;5012175;28;1295;-74
2021/06/08 07:29:56;;;;;;;;;;;;;;;23.77;55.11;101402.22;5069196;28;1158;-74
2021/06/08 07:32:23;;;;;;;;;;;;;;;23.77;55.59;101404.06;5040050;28;1268;-76
2021/06/08 07:35:00;;;;;;;;;;;;;;;23.78;55.70;101403.06;4977194;28;1975;-75
2021/06/08 07:37:29;;;;;;;;;;;;;;;23.78;56.04;101403.06;4976193;28;1392;-76
2021/06/08 07:40:05;;;;;;;;;;;;;;;23.79;56.62;101399.47;5007913;28;1246;-77
2021/06/08 07:42:35;;;;;;;;;;;;;;;23.78;56.56;101392.44;5068120;28;1272;-78
2021/06/08 07:45:04;;;;;;;;;;;;;;;23.78;56.73;101387.97;5001256;28;1196;-77
2021/06/08 07:47:31;;;;;;;;;;;;;;;23.78;56.87;101385.31;5002719;28;1880;-76
2021/06/08 07:50:00;;;;;;;;;;;;;;;23.78;56.74;101382.66;5067426;28;926;-76
2021/06/08 07:52:28;;;;;;;;;;;;;;;23.79;56.89;101380.84;5038042;28;1801;-77
2021/06/08 07:54:58;;;;;;;;;;;;;;;23.79;56.87;101372.88;4986572;28;1979;-78
2021/06/08 07:57:29;;;;;;;;;;;;;;;23.80;56.96;101374.59;5052947;28;1382;-76
2021/06/08 08:00:11;;;;;;;;;;;;;;;23.82;56.86;101377.97;5067325;28;1014;-75
2021/06/08 08:02:40;;;;;;;;;;;;;;;23.80;56.93;101372.75;5068404;28;1311;-78
2021/06/08 08:05:14;;;;;;;;;;;;;;;23.81;56.88;101374.47;5057760;28;1543;-75
2021/06/08 08:07:42;;;;;;;;;;;;;;;23.82;56.74;101383.31;4948094;29;1324;-76
2021/06/08 08:10:09;;;;;;;;;;;;;;;23.83;56.90;101372.53;4954789;28;2524;-77
2021/06/08 08:12:37;;;;;;;;;;;;;;;23.84;56.65;101373.41;4966196;28;1355;-71
2021/06/08 08:15:07;;;;;;;;;;;;;;;23.84;56.88;101374.25;4945728;28;1369;-72
2021/06/08 08:17:34;;;;;;;;;;;;;;;23.87;56.89;101367.88;4947147;28;1238;-72
2021/06/08 08:20:04;;;;;;;;;;;;;;;23.87;56.83;101365.19;4945837;28;1261;-72
2021/06/08 08:22:32;;;;;;;;;;;;;;;23.87;56.61;101363.41;4947089;29;1235;-72
2021/06/08 08:24:58;;;;;;;;;;;;;;;23.86;57.06;101364.34;4964823;28;1233;-72
2021/06/08 08:27:26;;;;;;;;;;;;;;;23.87;56.73;101354.56;4966552;28;1267;-71
2021/06/08 08:29:53;;;;;;;;;;;;;;;23.88;56.82;101356.28;4964841;28;1434;-71
2021/06/08 08:32:19;;;;;;;;;;;;;;;23.88;56.77;101356.28;5005067;28;1623;-71
2021/06/08 08:34:46;;;;;;;;;;;;;;;23.88;56.89;101356.28;5066415;28;1910;-71
2021/06/08 08:37:13;;;;;;;;;;;;;;;23.89;56.90;101360.66;5066006;28;1197;-71
2021/06/08 08:39:40;;;;;;;;;;;;;;;23.89;56.72;101360.66;5049550;28;1139;-71
2021/06/08 08:42:07;;;;;;;;;;;;;;;23.90;56.79;101357.00;5067456;28;1272;-72
2021/06/08 08:44:33;;;;;;;;;;;;;;;23.90;56.75;101357.88;5007334;28;1137;-72
2021/06/08 08:47:00;;;;;;;;;;;;;;;23.89;56.68;101353.50;4983454;28;1448;-72
2021/06/08 08:49:27;;;;;;;;;;;;;;;23.91;56.88;101356.06;5020648;28;1038;-72
2021/06/08 08:51:55;;;;;;;;;;;;;;;23.90;57.03;101357.88;5014035;28;1312;-72
2021/06/08 08:54:22;;;;;;;;;;;;;;;23.90;56.79;101355.22;5066232;28;1977;-72
2021/06/08 08:56:49;;;;;;;;;;;;;;;23.91;56.84;101356.91;5066060;28;1284;-71
2021/06/08 08:59:17;;;;;;;;;;;;;;;23.92;56.78;101358.59;5067194;28;1086;-72
2021/06/08 09:01:46;;;;;;;;;;;;;;;23.93;56.89;101348.81;5067378;28;1276;-72
2021/06/08 09:04:14;;;;;;;;;;;;;;;23.93;56.84;101354.13;5065710;28;1730;-72
2021/06/08 09:06:41;;;;;;;;;;;;;;;23.92;56.98;101350.63;5067656;28;1299;-72
2021/06/08 09:09:09;;;;;;;;;;;;;;;23.94;56.91;101355.84;5065663;28;1092;-72
2021/06/08 09:11:40;;;;;;;;;;;;;;;23.94;57.02;101355.84;5067584;28;1248;-71
2021/06/08 09:14:08;;;;;;;;;;;;;;;23.94;56.75;101364.69;5067356;28;1906;-72
2021/06/08 09:16:35;;;;;;;;;;;;;;;23.94;56.66;101362.03;5067673;28;1342;-72
2021/06/08 09:19:07;;;;;;;;;;;;;;;23.94;56.80;101359.38;5049382;28;1384;-77
2021/06/08 09:21:38;;;;;;;;;;;;;;;23.97;56.80;101366.28;5068660;28;1445;-72
2021/06/08 09:24:17;;;;;;;;;;;;;;;24.05;56.82;101368.41;4994251;28;1530;-76
2021/06/08 09:27:03;;;;;;;;;;;;;;;24.07;57.02;101369.16;4952102;28;1281;-75
2021/06/08 09:29:34;;;;;;;;;;;;;;;24.09;57.03;101369.91;4950378;28;1555;-72
2021/06/08 09:32:10;;;;;;;;;;;;;;;24.07;56.65;101369.16;4958234;28;1284;-72
2021/06/08 09:34:37;;;;;;;;;;;;;;;24.06;56.63;101375.44;4964337;28;1911;-74
2021/06/08 09:37:05;;;;;;;;;;;;;;;24.05;57.03;101369.25;4966408;28;1276;-76
2021/06/08 09:39:31;;;;;;;;;;;;;;;24.05;56.80;101371.91;4965571;28;778;-72
2021/06/08 09:41:58;;;;;;;;;;;;;;;24.05;57.02;101379.91;4958091;28;1606;-75
2021/06/08 09:44:25;;;;;;;;;;;;;;;24.05;57.03;101379.91;4971590;28;1740;-70
2021/06/08 09:46:56;;;;;;;;;;;;;;;24.06;57.05;101383.41;4985127;28;1574;-68
2021/06/08 09:49:36;;;;;;;;;;;;;;;24.07;56.92;101379.81;4983369;28;1314;-71
2021/06/08 09:52:04;;;;;;;;;;;;;;;24.10;57.08;101379.59;4970014;28;1487;-76
2021/06/08 09:54:30;;;;;;;;;;;;;;;24.09;56.62;101376.06;4955094;28;1915;-70
2021/06/08 09:57:10;;;;;;;;;;;;;;;24.09;56.76;101389.38;4966540;28;1288;-72
2021/06/08 09:59:41;;;;;;;;;;;;;;;24.11;56.61;101389.28;5036655;28;1574;-75
2021/06/08 10:02:24;;;;;;;;;;;;;;;24.10;56.91;101375.13;4965944;28;1351;-69
2021/06/08 10:04:52;;;;;;;;;;;;;;;24.12;56.56;101380.38;4967543;28;1072;-71
2021/06/08 10:07:29;;;;;;;;;;;;;;;24.11;56.92;101379.50;4960194;28;1245;-72
2021/06/08 10:10:07;;;;;;;;;;;;;;;24.13;56.84;101382.06;4951079;28;1233;-75
2021/06/08 10:12:35;;;;;;;;;;;;;;;24.12;57.19;101381.22;4938444;28;1351;-73
2021/06/08 10:15:12;;;;;;;;;;;;;;;24.13;57.00;101388.25;4965958;28;1914;-73
2021/06/08 10:17:39;;;;;;;;;;;;;;;24.14;57.13;101384.63;4968510;28;1331;-77
2021/06/08 10:20:17;;;;;;;;;;;;;;;24.15;56.86;101386.31;4955012;28;1096;-74
2021/06/08 10:22:53;;;;;;;;;;;;;;;24.15;56.81;101391.66;4969461;28;1206;-73
2021/06/08 10:25:20;;;;;;;;;;;;;;;24.16;56.83;101392.50;4967853;28;1096;-76
2021/06/08 10:27:51;;;;;;;;;;;;;;;24.16;57.09;101390.69;4954180;28;1177;-75
2021/06/08 10:30:34;;;;;;;;;;;;;;;24.15;56.98;101386.31;4954491;28;1715;-75
2021/06/08 10:33:26;;;;;;;;;;;;;;;24.19;55.40;101389.63;4967374;28;1899;-71
2021/06/08 10:36:08;;;;;;;;;;;;;;;24.14;55.78;101383.75;4968743;28;1264;-74
2021/06/08 10:38:35;;;;;;;;;;;;;;;24.13;56.36;101382.06;4968734;28;803;-74
2021/06/08 10:41:02;;;;;;;;;;;;;;;24.14;56.61;101381.94;4950705;28;1253;-81
2021/06/08 10:43:33;;;;;;;;;;;;;;;24.14;56.41;101384.63;4972274;28;1272;-78
2021/06/08 10:46:18;;;;;;;;;;;;;;;24.15;56.96;101375.69;4986101;28;1145;-80
2021/06/08 10:48:46;;;;;;;;;;;;;;;24.14;56.39;101376.63;4987634;28;1096;-78
2021/06/08 10:51:18;;;;;;;;;;;;;;;24.20;56.96;101383.31;4987264;28;1390;-72
2021/06/08 10:53:47;;;;;;;;;;;;;;;24.21;56.69;101383.25;4987332;28;1906;-72
2021/06/08 10:56:26;;;;;;;;;;;;;;;24.20;57.08;101375.34;4986329;28;1261;-69
2021/06/08 10:58:57;;;;;;;;;;;;;;;24.20;56.91;101372.69;4985602;28;953;-74
2021/06/08 11:01:34;;;;;;;;;;;;;;;24.15;56.94;101375.69;4985170;28;1322;-74
2021/06/08 11:04:03;;;;;;;;;;;;;;;24.14;56.97;101375.78;4969245;28;1400;-73
2021/06/08 11:06:47;;;;;;;;;;;;;;;24.12;57.00;101372.38;4985205;28;1258;-75
2021/06/08 11:09:15;;;;;;;;;;;;;;;24.11;57.01;101368.00;4955203;28;1613;-76
2021/06/08 11:11:45;;;;;;;;;;;;;;;24.11;56.86;101373.31;4958292;28;1257;-79
2021/06/08 11:14:31;;;;;;;;;;;;;;;24.11;56.95;101373.31;4967290;28;1902;-76
2021/06/08 11:16:59;;;;;;;;;;;;;;;24.11;57.09;101368.00;4969285;28;1235;-76
2021/06/08 11:19:45;;;;;;;;;;;;;;;24.11;56.95;101370.66;4967845;28;858;-76
2021/06/08 11:22:13;;;;;;;;;;;;;;;24.10;57.01;101366.28;4967543;28;1241;-78
2021/06/08 11:24:41;;;;;;;;;;;;;;;24.11;57.03;101368.00;4967462;28;786;-79
2021/06/08 11:27:08;;;;;;;;;;;;;;;24.09;56.88;101365.44;4966978;28;1734;-78
2021/06/08 11:29:44;;;;;;;;;;;;;;;24.10;57.03;101367.16;4967674;28;1958;-79
2021/06/08 11:32:30;;;;;;;;;;;;;;;24.10;57.01;101361.81;4968601;28;1225;-78
2021/06/08 11:35:09;;;;;;;;;;;;;;;24.11;57.06;101366.19;4968459;28;1910;-77
2021/06/08 11:37:56;;;;;;;;;;;;;;;24.11;56.89;101363.53;4969137;28;1245;-76
2021/06/08 11:40:37;;;;;;;;;;;;;;;24.18;56.74;101356.84;4945004;29;1527;-70
2021/06/08 11:43:05;;;;;;;;;;;;;;;24.18;56.71;101359.50;4958418;28;1284;-71
2021/06/08 11:45:34;;;;;;;;;;;;;;;24.17;56.92;101363.09;4967492;28;1382;-71
2021/06/08 11:48:01;;;;;;;;;;;;;;;24.17;56.68;101356.94;4965784;28;1436;-73
2021/06/08 11:50:38;;;;;;;;;;;;;;;24.17;56.88;101357.78;4965957;28;1250;-73
2021/06/08 11:53:05;;;;;;;;;;;;;;;24.17;56.93;101352.47;4967641;28;1323;-73
2021/06/08 11:55:33;;;;;;;;;;;;;;;24.17;56.81;101347.13;4967606;28;2003;-72
2021/06/08 11:58:00;;;;;;;;;;;;;;;24.18;56.96;101348.84;4966314;28;1329;-71
2021/06/08 12:00:50;;;;;;;;;;;;;;;24.19;56.89;101339.06;4965848;28;1216;-72
2021/06/08 12:03:26;;;;;;;;;;;;;;;24.24;56.96;101344.91;4950819;28;1725;-69
2021/06/08 12:05:54;;;;;;;;;;;;;;;24.24;56.81;101331.59;5016550;28;1731;-70
2021/06/08 12:08:21;;;;;;;;;;;;;;;24.36;58.94;101338.69;4956515;28;1966;-68
2021/06/08 12:10:49;;;;;;;;;;;;;;;24.40;57.73;101326.88;4947815;28;874;-73
2021/06/08 12:13:20;;;;;;;;;;;;;;;24.37;57.01;101327.97;4945464;28;1248;-70
2021/06/08 12:15:47;;;;;;;;;;;;;;;24.33;56.90;101323.81;4945524;28;1919;-69
2021/06/08 12:18:18;;;;;;;;;;;;;;;24.36;57.19;101320.06;4946480;28;1244;-71
2021/06/08 12:20:50;;;;;;;;;;;;;;;24.36;57.00;101320.06;4944279;28;1871;-69
2021/06/08 12:23:29;;;;;;;;;;;;;;;24.37;57.00;101319.97;4955618;28;1451;-68
2021/06/08 12:26:05;;;;;;;;;;;;;;;24.41;57.53;101317.91;4946623;28;838;-71
2021/06/08 12:28:34;;;;;;;;;;;;;;;24.48;57.40;101317.38;4945885;28;1018;-72
2021/06/08 12:31:18;;;;;;;;;;;;;;;24.51;57.02;101318.09;4959634;28;1280;-74
2021/06/08 12:33:50;;;;;;;;;;;;;;;24.59;56.74;101315.75;4965779;28;1919;-70
2021/06/08 12:36:23;;;;;;;;;;;;;;;24.59;56.88;101315.75;4949349;28;1399;-67
2021/06/08 12:38:57;;;;;;;;;;;;;;;24.61;56.80;101306.69;4945808;28;1688;-74
2021/06/08 12:41:34;;;;;;;;;;;;;;;24.61;56.86;101303.16;4946608;28;1548;-74
2021/06/08 12:44:01;;;;;;;;;;;;;;;24.66;56.77;101309.00;4935332;28;1444;-72
2021/06/08 12:46:49;;;;;;;;;;;;;;;24.64;57.21;101306.47;4971157;28;1470;-72
2021/06/08 12:49:35;;;;;;;;;;;;;;;24.57;56.81;101301.69;4944376;28;1419;-71
2021/06/08 12:52:24;;;;;;;;;;;;;;;24.57;56.60;101291.03;4928702;28;1443;-68
2021/06/08 12:54:51;;;;;;;;;;;;;;;24.57;57.02;101305.19;4945959;28;1974;-72
2021/06/08 12:57:24;;;;;;;;;;;;;;;24.65;56.69;101297.53;4944264;28;1206;-71
2021/06/08 13:00:05;;;;;;;;;;;;;;;24.58;56.81;101290.94;4944367;28;1048;-71
2021/06/08 13:02:34;;;;;;;;;;;;;;;24.57;56.77;101291.88;4944957;28;1599;-73